sensor_id;sensor_type;location;lat;lon;timestamp;P1;durP1;ratioP1;P2;durP2;ratioP2
2111;SDS011;1062;52.538;13.400;2023-02-27T00:01:57;1.70;;;1.60;;
2111;SDS011;1062;52.538;13.400;2023-02-27T00:04:23;4.00;;;2.87;;
2111;SDS011;1062;52.538;13.400;2023-02-27T00:06:49;2.93;;;2.60;;
2111;SDS011;1062;52.538;13.400;2023-02-27T00:09:14;2.37;;;1.87;;
2111;SDS011;1062;52.538;13.400;2023-02-27T00:11:40;3.30;;;1.90;;
2111;SDS011;1062;52.538;13.400;2023-02-27T00:14:07;2.30;;;1.83;;
2111;SDS011;1062;52.538;13.400;2023-02-27T00:16:33;2.43;;;2.23;;
2111;SDS011;1062;52.538;13.400;2023-02-27T00:18:59;2.13;;;1.80;;
2111;SDS011;1062;52.538;13.400;2023-02-27T00:21:26;2.00;;;1.80;;
2111;SDS011;1062;52.538;13.400;2023-02-27T00:23:51;2.90;;;2.30;;
2111;SDS011;1062;52.538;13.400;2023-02-27T00:26:17;1.90;;;1.70;;
2111;SDS011;1062;52.538;13.400;2023-02-27T00:28:43;5.00;;;1.83;;
2111;SDS011;1062;52.538;13.400;2023-02-27T00:31:08;3.20;;;2.60;;
2111;SDS011;1062;52.538;13.400;2023-02-27T00:33:34;2.47;;;1.93;;
2111;SDS011;1062;52.538;13.400;2023-02-27T00:36:00;2.63;;;2.10;;
2111;SDS011;1062;52.538;13.400;2023-02-27T00:38:27;1.70;;;1.60;;
2111;SDS011;1062;52.538;13.400;2023-02-27T00:40:52;7.53;;;1.90;;
2111;SDS011;1062;52.538;13.400;2023-02-27T00:43:18;1.70;;;1.60;;
2111;SDS011;1062;52.538;13.400;2023-02-27T00:45:43;2.73;;;1.60;;
2111;SDS011;1062;52.538;13.400;2023-02-27T00:48:09;1.97;;;1.77;;
2111;SDS011;1062;52.538;13.400;2023-02-27T00:50:35;2.57;;;1.63;;
2111;SDS011;1062;52.538;13.400;2023-02-27T00:53:00;2.50;;;1.70;;
2111;SDS011;1062;52.538;13.400;2023-02-27T00:55:26;3.30;;;1.80;;
2111;SDS011;1062;52.538;13.400;2023-02-27T00:57:52;2.30;;;1.60;;
2111;SDS011;1062;52.538;13.400;2023-02-27T01:00:17;1.60;;;1.50;;
2111;SDS011;1062;52.538;13.400;2023-02-27T01:02:43;2.80;;;1.80;;
2111;SDS011;1062;52.538;13.400;2023-02-27T01:05:09;2.17;;;1.47;;
2111;SDS011;1062;52.538;13.400;2023-02-27T01:07:34;1.57;;;1.33;;
2111;SDS011;1062;52.538;13.400;2023-02-27T01:10:01;2.47;;;2.27;;
2111;SDS011;1062;52.538;13.400;2023-02-27T01:12:28;2.10;;;1.90;;
2111;SDS011;1062;52.538;13.400;2023-02-27T01:14:53;2.80;;;1.90;;
2111;SDS011;1062;52.538;13.400;2023-02-27T01:17:19;1.97;;;1.30;;
2111;SDS011;1062;52.538;13.400;2023-02-27T01:19:45;4.70;;;2.33;;
2111;SDS011;1062;52.538;13.400;2023-02-27T01:22:11;2.03;;;1.60;;
2111;SDS011;1062;52.538;13.400;2023-02-27T01:24:36;2.53;;;1.87;;
2111;SDS011;1062;52.538;13.400;2023-02-27T01:27:02;2.13;;;1.97;;
2111;SDS011;1062;52.538;13.400;2023-02-27T01:29:28;1.73;;;1.60;;
2111;SDS011;1062;52.538;13.400;2023-02-27T01:31:53;1.73;;;1.63;;
2111;SDS011;1062;52.538;13.400;2023-02-27T01:34:19;2.13;;;1.93;;
2111;SDS011;1062;52.538;13.400;2023-02-27T01:36:45;2.00;;;1.83;;
2111;SDS011;1062;52.538;13.400;2023-02-27T01:39:10;2.10;;;1.77;;
2111;SDS011;1062;52.538;13.400;2023-02-27T01:41:36;2.70;;;2.50;;
2111;SDS011;1062;52.538;13.400;2023-02-27T01:44:06;2.10;;;1.87;;
2111;SDS011;1062;52.538;13.400;2023-02-27T01:46:33;1.73;;;1.63;;
2111;SDS011;1062;52.538;13.400;2023-02-27T01:49:04;1.60;;;1.50;;
2111;SDS011;1062;52.538;13.400;2023-02-27T01:51:35;1.63;;;1.30;;
2111;SDS011;1062;52.538;13.400;2023-02-27T01:54:04;1.63;;;1.53;;
2111;SDS011;1062;52.538;13.400;2023-02-27T01:56:32;2.90;;;2.13;;
2111;SDS011;1062;52.538;13.400;2023-02-27T01:58:59;2.40;;;2.20;;
2111;SDS011;1062;52.538;13.400;2023-02-27T02:01:28;3.67;;;2.00;;
2111;SDS011;1062;52.538;13.400;2023-02-27T02:03:59;2.17;;;1.97;;
2111;SDS011;1062;52.538;13.400;2023-02-27T02:06:45;1.67;;;1.57;;
2111;SDS011;1062;52.538;13.400;2023-02-27T02:09:15;2.30;;;1.50;;
2111;SDS011;1062;52.538;13.400;2023-02-27T02:11:42;2.67;;;1.90;;
2111;SDS011;1062;52.538;13.400;2023-02-27T02:14:08;1.70;;;1.60;;
2111;SDS011;1062;52.538;13.400;2023-02-27T02:19:13;2.43;;;1.83;;
2111;SDS011;1062;52.538;13.400;2023-02-27T02:27:25;3.50;;;1.70;;
2111;SDS011;1062;52.538;13.400;2023-02-27T02:49:08;1.97;;;1.60;;
2111;SDS011;1062;52.538;13.400;2023-02-27T02:57:14;3.30;;;2.00;;
2111;SDS011;1062;52.538;13.400;2023-02-27T03:02:25;1.97;;;1.70;;
2111;SDS011;1062;52.538;13.400;2023-02-27T03:04:59;1.50;;;1.40;;
2111;SDS011;1062;52.538;13.400;2023-02-27T03:07:42;3.23;;;1.70;;
2111;SDS011;1062;52.538;13.400;2023-02-27T03:10:18;1.63;;;1.53;;
2111;SDS011;1062;52.538;13.400;2023-02-27T03:13:11;1.73;;;1.63;;
2111;SDS011;1062;52.538;13.400;2023-02-27T03:15:44;1.60;;;1.30;;
2111;SDS011;1062;52.538;13.400;2023-02-27T03:18:22;3.33;;;1.70;;
2111;SDS011;1062;52.538;13.400;2023-02-27T03:20:54;2.23;;;1.90;;
2111;SDS011;1062;52.538;13.400;2023-02-27T03:23:28;2.77;;;1.87;;
2111;SDS011;1062;52.538;13.400;2023-02-27T03:25:58;2.40;;;2.20;;
2111;SDS011;1062;52.538;13.400;2023-02-27T03:28:25;3.30;;;1.83;;
2111;SDS011;1062;52.538;13.400;2023-02-27T03:31:06;1.77;;;1.67;;
2111;SDS011;1062;52.538;13.400;2023-02-27T03:33:42;5.60;;;2.17;;
2111;SDS011;1062;52.538;13.400;2023-02-27T03:39:26;4.83;;;2.17;;
2111;SDS011;1062;52.538;13.400;2023-02-27T03:44:31;2.10;;;2.00;;
2111;SDS011;1062;52.538;13.400;2023-02-27T03:47:20;2.60;;;1.80;;
2111;SDS011;1062;52.538;13.400;2023-02-27T03:49:46;1.97;;;1.73;;
2111;SDS011;1062;52.538;13.400;2023-02-27T03:52:15;6.47;;;3.53;;
2111;SDS011;1062;52.538;13.400;2023-02-27T03:54:44;2.47;;;2.10;;
2111;SDS011;1062;52.538;13.400;2023-02-27T03:57:17;3.33;;;2.23;;
2111;SDS011;1062;52.538;13.400;2023-02-27T03:59:42;3.20;;;2.33;;
2111;SDS011;1062;52.538;13.400;2023-02-27T04:02:09;2.33;;;2.03;;
2111;SDS011;1062;52.538;13.400;2023-02-27T04:04:35;2.17;;;1.97;;
2111;SDS011;1062;52.538;13.400;2023-02-27T04:07:50;5.03;;;2.23;;
2111;SDS011;1062;52.538;13.400;2023-02-27T04:20:32;1.50;;;1.40;;
2111;SDS011;1062;52.538;13.400;2023-02-27T04:23:22;2.03;;;1.93;;
2111;SDS011;1062;52.538;13.400;2023-02-27T04:28:52;1.70;;;1.60;;
2111;SDS011;1062;52.538;13.400;2023-02-27T04:34:20;3.17;;;1.37;;
2111;SDS011;1062;52.538;13.400;2023-02-27T04:39:29;3.33;;;2.20;;
2111;SDS011;1062;52.538;13.400;2023-02-27T04:42:07;1.90;;;1.80;;
2111;SDS011;1062;52.538;13.400;2023-02-27T04:44:40;2.07;;;1.87;;
2111;SDS011;1062;52.538;13.400;2023-02-27T04:47:09;2.67;;;2.43;;
2111;SDS011;1062;52.538;13.400;2023-02-27T04:49:40;1.87;;;1.77;;
2111;SDS011;1062;52.538;13.400;2023-02-27T04:52:18;4.43;;;2.30;;
2111;SDS011;1062;52.538;13.400;2023-02-27T04:54:53;2.17;;;2.00;;
2111;SDS011;1062;52.538;13.400;2023-02-27T04:57:27;3.47;;;1.97;;
2111;SDS011;1062;52.538;13.400;2023-02-27T05:00:05;2.10;;;1.90;;
2111;SDS011;1062;52.538;13.400;2023-02-27T05:02:37;4.97;;;2.83;;
2111;SDS011;1062;52.538;13.400;2023-02-27T05:05:08;2.10;;;1.90;;
2111;SDS011;1062;52.538;13.400;2023-02-27T05:07:40;3.57;;;2.40;;
2111;SDS011;1062;52.538;13.400;2023-02-27T05:10:14;12.03;;;2.33;;
2111;SDS011;1062;52.538;13.400;2023-02-27T05:12:57;1.80;;;1.70;;
2111;SDS011;1062;52.538;13.400;2023-02-27T05:15:41;7.40;;;3.10;;
2111;SDS011;1062;52.538;13.400;2023-02-27T05:18:11;4.33;;;2.43;;
2111;SDS011;1062;52.538;13.400;2023-02-27T05:20:51;2.60;;;2.40;;
2111;SDS011;1062;52.538;13.400;2023-02-27T05:23:40;3.40;;;2.00;;
2111;SDS011;1062;52.538;13.400;2023-02-27T05:26:44;2.80;;;1.70;;
2111;SDS011;1062;52.538;13.400;2023-02-27T05:34:43;2.57;;;2.30;;
2111;SDS011;1062;52.538;13.400;2023-02-27T05:37:21;3.90;;;2.17;;
2111;SDS011;1062;52.538;13.400;2023-02-27T05:39:52;2.53;;;2.23;;
2111;SDS011;1062;52.538;13.400;2023-02-27T05:42:20;2.33;;;2.10;;
2111;SDS011;1062;52.538;13.400;2023-02-27T05:44:54;4.03;;;2.20;;
2111;SDS011;1062;52.538;13.400;2023-02-27T05:47:24;1.77;;;1.67;;
2111;SDS011;1062;52.538;13.400;2023-02-27T05:50:02;1.97;;;1.80;;
2111;SDS011;1062;52.538;13.400;2023-02-27T05:52:35;2.50;;;2.30;;
2111;SDS011;1062;52.538;13.400;2023-02-27T05:58:12;2.27;;;2.07;;
2111;SDS011;1062;52.538;13.400;2023-02-27T06:00:56;3.10;;;2.47;;
2111;SDS011;1062;52.538;13.400;2023-02-27T06:03:27;2.53;;;2.33;;
2111;SDS011;1062;52.538;13.400;2023-02-27T06:05:54;2.20;;;2.10;;
2111;SDS011;1062;52.538;13.400;2023-02-27T06:08:22;2.37;;;2.17;;
2111;SDS011;1062;52.538;13.400;2023-02-27T06:10:48;2.23;;;2.03;;
2111;SDS011;1062;52.538;13.400;2023-02-27T06:13:14;7.13;;;2.17;;
2111;SDS011;1062;52.538;13.400;2023-02-27T06:15:41;4.23;;;1.93;;
2111;SDS011;1062;52.538;13.400;2023-02-27T06:18:10;2.03;;;1.83;;
2111;SDS011;1062;52.538;13.400;2023-02-27T06:20:37;1.63;;;1.53;;
2111;SDS011;1062;52.538;13.400;2023-02-27T06:23:04;7.43;;;2.67;;
2111;SDS011;1062;52.538;13.400;2023-02-27T06:25:30;2.23;;;2.03;;
2111;SDS011;1062;52.538;13.400;2023-02-27T06:27:56;1.90;;;1.77;;
2111;SDS011;1062;52.538;13.400;2023-02-27T06:30:22;4.50;;;2.50;;
2111;SDS011;1062;52.538;13.400;2023-02-27T06:32:47;3.60;;;2.20;;
2111;SDS011;1062;52.538;13.400;2023-02-27T06:35:14;2.37;;;2.20;;
2111;SDS011;1062;52.538;13.400;2023-02-27T06:37:40;2.13;;;2.03;;
2111;SDS011;1062;52.538;13.400;2023-02-27T06:40:06;4.60;;;2.17;;
2111;SDS011;1062;52.538;13.400;2023-02-27T06:42:39;2.90;;;2.00;;
2111;SDS011;1062;52.538;13.400;2023-02-27T06:45:06;3.40;;;3.10;;
2111;SDS011;1062;52.538;13.400;2023-02-27T06:47:32;2.50;;;2.27;;
2111;SDS011;1062;52.538;13.400;2023-02-27T06:49:58;2.30;;;1.87;;
2111;SDS011;1062;52.538;13.400;2023-02-27T06:52:24;3.70;;;2.90;;
2111;SDS011;1062;52.538;13.400;2023-02-27T06:54:50;3.80;;;2.13;;
2111;SDS011;1062;52.538;13.400;2023-02-27T06:57:15;3.23;;;2.23;;
2111;SDS011;1062;52.538;13.400;2023-02-27T06:59:41;4.83;;;2.77;;
2111;SDS011;1062;52.538;13.400;2023-02-27T07:02:09;3.50;;;2.97;;
2111;SDS011;1062;52.538;13.400;2023-02-27T07:04:37;4.43;;;2.53;;
2111;SDS011;1062;52.538;13.400;2023-02-27T07:07:03;8.30;;;2.63;;
2111;SDS011;1062;52.538;13.400;2023-02-27T07:09:29;3.30;;;3.00;;
2111;SDS011;1062;52.538;13.400;2023-02-27T07:11:55;3.10;;;2.00;;
2111;SDS011;1062;52.538;13.400;2023-02-27T07:14:21;2.90;;;2.07;;
2111;SDS011;1062;52.538;13.400;2023-02-27T07:16:47;2.47;;;2.27;;
2111;SDS011;1062;52.538;13.400;2023-02-27T07:19:17;3.43;;;2.77;;
2111;SDS011;1062;52.538;13.400;2023-02-27T07:21:44;3.57;;;2.90;;
2111;SDS011;1062;52.538;13.400;2023-02-27T07:24:09;6.40;;;3.80;;
2111;SDS011;1062;52.538;13.400;2023-02-27T07:26:35;4.17;;;3.77;;
2111;SDS011;1062;52.538;13.400;2023-02-27T07:29:01;3.53;;;3.23;;
2111;SDS011;1062;52.538;13.400;2023-02-27T07:31:27;4.30;;;2.90;;
2111;SDS011;1062;52.538;13.400;2023-02-27T07:33:53;2.67;;;2.47;;
2111;SDS011;1062;52.538;13.400;2023-02-27T07:36:19;2.93;;;2.63;;
2111;SDS011;1062;52.538;13.400;2023-02-27T07:38:45;4.73;;;3.40;;
2111;SDS011;1062;52.538;13.400;2023-02-27T07:41:10;4.47;;;2.50;;
2111;SDS011;1062;52.538;13.400;2023-02-27T07:43:36;5.40;;;2.80;;
2111;SDS011;1062;52.538;13.400;2023-02-27T07:46:01;3.27;;;3.00;;
2111;SDS011;1062;52.538;13.400;2023-02-27T07:48:28;4.20;;;3.00;;
2111;SDS011;1062;52.538;13.400;2023-02-27T07:50:54;3.00;;;2.67;;
2111;SDS011;1062;52.538;13.400;2023-02-27T07:53:20;2.40;;;2.20;;
2111;SDS011;1062;52.538;13.400;2023-02-27T07:55:45;3.13;;;2.83;;
2111;SDS011;1062;52.538;13.400;2023-02-27T07:58:11;2.83;;;2.40;;
2111;SDS011;1062;52.538;13.400;2023-02-27T08:00:37;2.37;;;2.10;;
2111;SDS011;1062;52.538;13.400;2023-02-27T08:03:03;3.20;;;2.80;;
2111;SDS011;1062;52.538;13.400;2023-02-27T08:05:28;3.13;;;2.83;;
2111;SDS011;1062;52.538;13.400;2023-02-27T08:07:54;3.27;;;2.77;;
2111;SDS011;1062;52.538;13.400;2023-02-27T08:10:20;3.37;;;2.93;;
2111;SDS011;1062;52.538;13.400;2023-02-27T08:12:46;4.03;;;3.60;;
2111;SDS011;1062;52.538;13.400;2023-02-27T08:15:11;2.83;;;2.63;;
2111;SDS011;1062;52.538;13.400;2023-02-27T08:17:37;4.47;;;3.20;;
2111;SDS011;1062;52.538;13.400;2023-02-27T08:20:03;4.43;;;2.67;;
2111;SDS011;1062;52.538;13.400;2023-02-27T08:22:29;4.27;;;2.73;;
2111;SDS011;1062;52.538;13.400;2023-02-27T08:24:56;2.80;;;2.60;;
2111;SDS011;1062;52.538;13.400;2023-02-27T08:27:22;7.03;;;3.47;;
2111;SDS011;1062;52.538;13.400;2023-02-27T08:29:48;4.07;;;2.47;;
2111;SDS011;1062;52.538;13.400;2023-02-27T08:32:13;3.80;;;2.90;;
2111;SDS011;1062;52.538;13.400;2023-02-27T08:34:39;3.50;;;3.20;;
2111;SDS011;1062;52.538;13.400;2023-02-27T08:37:04;3.63;;;3.10;;
2111;SDS011;1062;52.538;13.400;2023-02-27T08:39:30;6.63;;;3.27;;
2111;SDS011;1062;52.538;13.400;2023-02-27T08:41:56;3.47;;;2.70;;
2111;SDS011;1062;52.538;13.400;2023-02-27T08:44:21;6.40;;;3.87;;
2111;SDS011;1062;52.538;13.400;2023-02-27T08:46:47;6.50;;;3.70;;
2111;SDS011;1062;52.538;13.400;2023-02-27T08:49:13;6.90;;;4.27;;
2111;SDS011;1062;52.538;13.400;2023-02-27T08:51:39;6.03;;;4.27;;
2111;SDS011;1062;52.538;13.400;2023-02-27T08:54:04;6.70;;;4.07;;
2111;SDS011;1062;52.538;13.400;2023-02-27T08:56:30;6.80;;;3.93;;
2111;SDS011;1062;52.538;13.400;2023-02-27T08:58:57;4.40;;;3.37;;
2111;SDS011;1062;52.538;13.400;2023-02-27T09:01:23;3.30;;;3.00;;
2111;SDS011;1062;52.538;13.400;2023-02-27T09:03:52;3.87;;;3.47;;
2111;SDS011;1062;52.538;13.400;2023-02-27T09:06:17;3.27;;;2.87;;
2111;SDS011;1062;52.538;13.400;2023-02-27T09:08:43;3.50;;;3.13;;
2111;SDS011;1062;52.538;13.400;2023-02-27T09:11:08;3.53;;;3.23;;
2111;SDS011;1062;52.538;13.400;2023-02-27T09:13:34;6.03;;;3.20;;
2111;SDS011;1062;52.538;13.400;2023-02-27T09:16:00;8.70;;;3.97;;
2111;SDS011;1062;52.538;13.400;2023-02-27T09:18:25;4.20;;;3.90;;
2111;SDS011;1062;52.538;13.400;2023-02-27T09:20:51;3.37;;;3.07;;
2111;SDS011;1062;52.538;13.400;2023-02-27T09:23:17;3.47;;;2.40;;
2111;SDS011;1062;52.538;13.400;2023-02-27T09:25:43;4.73;;;3.10;;
2111;SDS011;1062;52.538;13.400;2023-02-27T09:28:09;4.37;;;3.50;;
2111;SDS011;1062;52.538;13.400;2023-02-27T09:30:34;9.80;;;3.60;;
2111;SDS011;1062;52.538;13.400;2023-02-27T09:33:00;5.20;;;3.40;;
2111;SDS011;1062;52.538;13.400;2023-02-27T09:35:26;3.03;;;2.73;;
2111;SDS011;1062;52.538;13.400;2023-02-27T09:37:51;4.87;;;3.40;;
2111;SDS011;1062;52.538;13.400;2023-02-27T09:42:51;4.53;;;2.77;;
2111;SDS011;1062;52.538;13.400;2023-02-27T09:45:24;3.30;;;3.00;;
2111;SDS011;1062;52.538;13.400;2023-02-27T09:47:55;5.13;;;3.70;;
2111;SDS011;1062;52.538;13.400;2023-02-27T09:50:37;3.30;;;2.63;;
2111;SDS011;1062;52.538;13.400;2023-02-27T09:53:12;2.90;;;2.70;;
2111;SDS011;1062;52.538;13.400;2023-02-27T09:55:45;5.47;;;3.07;;
2111;SDS011;1062;52.538;13.400;2023-02-27T10:01:04;2.60;;;2.17;;
2111;SDS011;1062;52.538;13.400;2023-02-27T10:11:43;3.30;;;2.43;;
2111;SDS011;1062;52.538;13.400;2023-02-27T10:17:30;2.77;;;2.57;;
2111;SDS011;1062;52.538;13.400;2023-02-27T10:20:01;5.50;;;2.77;;
2111;SDS011;1062;52.538;13.400;2023-02-27T10:22:35;3.47;;;2.50;;
2111;SDS011;1062;52.538;13.400;2023-02-27T10:25:08;2.67;;;2.20;;
2111;SDS011;1062;52.538;13.400;2023-02-27T10:27:46;3.13;;;2.40;;
2111;SDS011;1062;52.538;13.400;2023-02-27T10:30:15;2.40;;;2.20;;
2111;SDS011;1062;52.538;13.400;2023-02-27T10:32:42;3.27;;;3.00;;
2111;SDS011;1062;52.538;13.400;2023-02-27T10:38:00;4.73;;;2.13;;
2111;SDS011;1062;52.538;13.400;2023-02-27T10:40:28;3.73;;;2.33;;
2111;SDS011;1062;52.538;13.400;2023-02-27T10:42:55;2.73;;;2.50;;
2111;SDS011;1062;52.538;13.400;2023-02-27T10:45:25;3.83;;;2.77;;
2111;SDS011;1062;52.538;13.400;2023-02-27T10:47:51;2.37;;;1.90;;
2111;SDS011;1062;52.538;13.400;2023-02-27T10:52:52;2.10;;;2.00;;
2111;SDS011;1062;52.538;13.400;2023-02-27T10:55:25;3.33;;;2.60;;
2111;SDS011;1062;52.538;13.400;2023-02-27T10:57:51;2.60;;;1.93;;
2111;SDS011;1062;52.538;13.400;2023-02-27T11:03:16;6.23;;;2.00;;
2111;SDS011;1062;52.538;13.400;2023-02-27T11:05:50;2.40;;;2.10;;
2111;SDS011;1062;52.538;13.400;2023-02-27T11:11:03;1.80;;;1.53;;
2111;SDS011;1062;52.538;13.400;2023-02-27T11:13:34;3.63;;;1.70;;
2111;SDS011;1062;52.538;13.400;2023-02-27T11:16:07;4.03;;;1.70;;
2111;SDS011;1062;52.538;13.400;2023-02-27T11:18:36;2.00;;;1.80;;
2111;SDS011;1062;52.538;13.400;2023-02-27T11:23:51;2.23;;;1.40;;
2111;SDS011;1062;52.538;13.400;2023-02-27T11:26:22;2.47;;;1.70;;
2111;SDS011;1062;52.538;13.400;2023-02-27T11:34:30;1.53;;;1.43;;
2111;SDS011;1062;52.538;13.400;2023-02-27T11:37:08;2.20;;;2.00;;
2111;SDS011;1062;52.538;13.400;2023-02-27T11:39:50;3.93;;;1.30;;
2111;SDS011;1062;52.538;13.400;2023-02-27T11:47:50;3.17;;;1.30;;
2111;SDS011;1062;52.538;13.400;2023-02-27T11:55:25;1.40;;;1.30;;
2111;SDS011;1062;52.538;13.400;2023-02-27T11:58:01;1.77;;;1.47;;
2111;SDS011;1062;52.538;13.400;2023-02-27T12:00:36;4.93;;;1.30;;
2111;SDS011;1062;52.538;13.400;2023-02-27T12:06:06;1.07;;;1.00;;
2111;SDS011;1062;52.538;13.400;2023-02-27T12:09:03;1.80;;;1.20;;
2111;SDS011;1062;52.538;13.400;2023-02-27T12:11:43;1.57;;;1.30;;
2111;SDS011;1062;52.538;13.400;2023-02-27T12:14:14;1.90;;;1.80;;
2111;SDS011;1062;52.538;13.400;2023-02-27T12:19:29;1.70;;;1.60;;
2111;SDS011;1062;52.538;13.400;2023-02-27T12:22:19;1.07;;;1.00;;
2111;SDS011;1062;52.538;13.400;2023-02-27T12:24:53;1.80;;;1.30;;
2111;SDS011;1062;52.538;13.400;2023-02-27T12:30:06;1.30;;;1.20;;
2111;SDS011;1062;52.538;13.400;2023-02-27T12:35:33;1.07;;;1.00;;
2111;SDS011;1062;52.538;13.400;2023-02-27T12:37:59;1.50;;;1.10;;
2111;SDS011;1062;52.538;13.400;2023-02-27T12:40:29;3.43;;;1.10;;
2111;SDS011;1062;52.538;13.400;2023-02-27T12:48:17;2.83;;;1.63;;
2111;SDS011;1062;52.538;13.400;2023-02-27T12:56:41;2.13;;;1.17;;
2111;SDS011;1062;52.538;13.400;2023-02-27T13:04:45;2.07;;;0.90;;
2111;SDS011;1062;52.538;13.400;2023-02-27T13:07:26;1.27;;;0.87;;
2111;SDS011;1062;52.538;13.400;2023-02-27T13:09:57;1.47;;;0.77;;
2111;SDS011;1062;52.538;13.400;2023-02-27T13:15:15;2.33;;;1.10;;
2111;SDS011;1062;52.538;13.400;2023-02-27T13:20:52;1.27;;;1.10;;
2111;SDS011;1062;52.538;13.400;2023-02-27T13:23:42;1.33;;;0.90;;
2111;SDS011;1062;52.538;13.400;2023-02-27T13:26:21;2.10;;;1.00;;
2111;SDS011;1062;52.538;13.400;2023-02-27T13:28:55;1.33;;;1.00;;
2111;SDS011;1062;52.538;13.400;2023-02-27T13:31:38;2.27;;;1.30;;
2111;SDS011;1062;52.538;13.400;2023-02-27T13:34:28;1.87;;;1.27;;
2111;SDS011;1062;52.538;13.400;2023-02-27T13:37:08;1.20;;;1.10;;
2111;SDS011;1062;52.538;13.400;2023-02-27T13:39:49;1.10;;;0.90;;
2111;SDS011;1062;52.538;13.400;2023-02-27T13:44:54;1.10;;;1.00;;
2111;SDS011;1062;52.538;13.400;2023-02-27T13:52:30;3.33;;;1.27;;
2111;SDS011;1062;52.538;13.400;2023-02-27T13:55:00;0.83;;;0.70;;
2111;SDS011;1062;52.538;13.400;2023-02-27T13:57:31;1.17;;;0.80;;
2111;SDS011;1062;52.538;13.400;2023-02-27T14:00:00;1.10;;;1.00;;
2111;SDS011;1062;52.538;13.400;2023-02-27T14:05:36;2.03;;;1.50;;
2111;SDS011;1062;52.538;13.400;2023-02-27T14:10:39;0.93;;;0.70;;
2111;SDS011;1062;52.538;13.400;2023-02-27T14:21:50;1.00;;;0.90;;
2111;SDS011;1062;52.538;13.400;2023-02-27T14:24:20;1.10;;;1.00;;
2111;SDS011;1062;52.538;13.400;2023-02-27T14:26:49;0.80;;;0.80;;
2111;SDS011;1062;52.538;13.400;2023-02-27T14:29:18;1.40;;;0.97;;
2111;SDS011;1062;52.538;13.400;2023-02-27T14:31:48;1.10;;;1.00;;
2111;SDS011;1062;52.538;13.400;2023-02-27T14:34:16;1.90;;;1.20;;
2111;SDS011;1062;52.538;13.400;2023-02-27T14:36:56;2.30;;;1.00;;
2111;SDS011;1062;52.538;13.400;2023-02-27T14:39:34;1.67;;;1.40;;
2111;SDS011;1062;52.538;13.400;2023-02-27T14:45:10;1.90;;;1.40;;
2111;SDS011;1062;52.538;13.400;2023-02-27T14:47:38;0.93;;;0.90;;
2111;SDS011;1062;52.538;13.400;2023-02-27T14:50:05;3.53;;;1.33;;
2111;SDS011;1062;52.538;13.400;2023-02-27T14:52:45;1.03;;;0.83;;
2111;SDS011;1062;52.538;13.400;2023-02-27T14:55:16;1.97;;;1.87;;
2111;SDS011;1062;52.538;13.400;2023-02-27T15:03:06;2.67;;;1.30;;
2111;SDS011;1062;52.538;13.400;2023-02-27T15:05:36;1.23;;;0.90;;
2111;SDS011;1062;52.538;13.400;2023-02-27T15:08:02;1.90;;;1.40;;
2111;SDS011;1062;52.538;13.400;2023-02-27T15:10:28;4.10;;;1.47;;
2111;SDS011;1062;52.538;13.400;2023-02-27T15:12:55;9.00;;;1.37;;
2111;SDS011;1062;52.538;13.400;2023-02-27T15:15:22;1.10;;;1.00;;
2111;SDS011;1062;52.538;13.400;2023-02-27T15:17:50;1.30;;;1.20;;
2111;SDS011;1062;52.538;13.400;2023-02-27T15:20:31;0.90;;;0.90;;
2111;SDS011;1062;52.538;13.400;2023-02-27T15:22:59;0.90;;;0.90;;
2111;SDS011;1062;52.538;13.400;2023-02-27T15:25:28;1.03;;;1.00;;
2111;SDS011;1062;52.538;13.400;2023-02-27T15:27:59;1.33;;;1.23;;
2111;SDS011;1062;52.538;13.400;2023-02-27T15:30:27;1.10;;;1.03;;
2111;SDS011;1062;52.538;13.400;2023-02-27T15:32:53;1.33;;;1.23;;
2111;SDS011;1062;52.538;13.400;2023-02-27T15:35:21;2.13;;;1.30;;
2111;SDS011;1062;52.538;13.400;2023-02-27T15:37:49;1.17;;;1.07;;
2111;SDS011;1062;52.538;13.400;2023-02-27T15:40:21;1.33;;;1.23;;
2111;SDS011;1062;52.538;13.400;2023-02-27T15:42:48;2.20;;;0.97;;
2111;SDS011;1062;52.538;13.400;2023-02-27T15:45:16;1.13;;;1.03;;
2111;SDS011;1062;52.538;13.400;2023-02-27T15:47:43;2.00;;;1.20;;
2111;SDS011;1062;52.538;13.400;2023-02-27T15:52:53;1.67;;;1.20;;
2111;SDS011;1062;52.538;13.400;2023-02-27T15:55:52;1.20;;;1.10;;
2111;SDS011;1062;52.538;13.400;2023-02-27T15:58:28;1.67;;;1.40;;
2111;SDS011;1062;52.538;13.400;2023-02-27T16:03:59;1.10;;;0.90;;
2111;SDS011;1062;52.538;13.400;2023-02-27T16:06:35;1.47;;;1.20;;
2111;SDS011;1062;52.538;13.400;2023-02-27T16:09:06;1.30;;;0.90;;
2111;SDS011;1062;52.538;13.400;2023-02-27T16:12:08;1.90;;;1.00;;
2111;SDS011;1062;52.538;13.400;2023-02-27T16:14:49;1.50;;;1.10;;
2111;SDS011;1062;52.538;13.400;2023-02-27T16:17:23;1.23;;;0.93;;
2111;SDS011;1062;52.538;13.400;2023-02-27T16:20:00;1.10;;;1.00;;
2111;SDS011;1062;52.538;13.400;2023-02-27T16:23:01;1.93;;;0.93;;
2111;SDS011;1062;52.538;13.400;2023-02-27T16:25:40;1.37;;;1.10;;
2111;SDS011;1062;52.538;13.400;2023-02-27T16:28:12;1.27;;;1.17;;
2111;SDS011;1062;52.538;13.400;2023-02-27T16:30:41;1.30;;;1.20;;
2111;SDS011;1062;52.538;13.400;2023-02-27T16:33:12;2.30;;;1.50;;
2111;SDS011;1062;52.538;13.400;2023-02-27T16:35:45;1.30;;;1.20;;
2111;SDS011;1062;52.538;13.400;2023-02-27T16:38:11;4.33;;;1.30;;
2111;SDS011;1062;52.538;13.400;2023-02-27T16:40:40;2.00;;;1.10;;
2111;SDS011;1062;52.538;13.400;2023-02-27T16:43:09;2.00;;;1.40;;
2111;SDS011;1062;52.538;13.400;2023-02-27T16:45:35;2.37;;;1.47;;
2111;SDS011;1062;52.538;13.400;2023-02-27T16:48:00;4.60;;;1.83;;
2111;SDS011;1062;52.538;13.400;2023-02-27T16:50:33;2.90;;;1.40;;
2111;SDS011;1062;52.538;13.400;2023-02-27T16:53:09;2.50;;;1.30;;
2111;SDS011;1062;52.538;13.400;2023-02-27T16:58:19;1.73;;;1.10;;
2111;SDS011;1062;52.538;13.400;2023-02-27T17:00:45;1.20;;;1.10;;
2111;SDS011;1062;52.538;13.400;2023-02-27T17:03:14;1.63;;;1.53;;
2111;SDS011;1062;52.538;13.400;2023-02-27T17:05:42;4.27;;;1.50;;
2111;SDS011;1062;52.538;13.400;2023-02-27T17:08:23;1.50;;;1.40;;
2111;SDS011;1062;52.538;13.400;2023-02-27T17:10:49;1.53;;;1.27;;
2111;SDS011;1062;52.538;13.400;2023-02-27T17:13:20;2.20;;;1.47;;
2111;SDS011;1062;52.538;13.400;2023-02-27T17:15:46;1.60;;;1.50;;
2111;SDS011;1062;52.538;13.400;2023-02-27T17:18:17;1.50;;;1.33;;
2111;SDS011;1062;52.538;13.400;2023-02-27T17:20:43;2.20;;;1.47;;
2111;SDS011;1062;52.538;13.400;2023-02-27T17:23:17;1.57;;;1.47;;
2111;SDS011;1062;52.538;13.400;2023-02-27T17:26:00;2.10;;;1.87;;
2111;SDS011;1062;52.538;13.400;2023-02-27T17:28:28;1.90;;;1.73;;
2111;SDS011;1062;52.538;13.400;2023-02-27T17:30:57;1.53;;;1.43;;
2111;SDS011;1062;52.538;13.400;2023-02-27T17:33:31;2.00;;;1.50;;
2111;SDS011;1062;52.538;13.400;2023-02-27T17:36:01;2.03;;;1.67;;
2111;SDS011;1062;52.538;13.400;2023-02-27T17:38:40;4.13;;;1.93;;
2111;SDS011;1062;52.538;13.400;2023-02-27T17:41:20;1.83;;;1.73;;
2111;SDS011;1062;52.538;13.400;2023-02-27T17:43:59;2.90;;;2.40;;
2111;SDS011;1062;52.538;13.400;2023-02-27T17:46:45;2.00;;;1.90;;
2111;SDS011;1062;52.538;13.400;2023-02-27T17:49:26;2.00;;;1.80;;
2111;SDS011;1062;52.538;13.400;2023-02-27T17:51:55;2.17;;;1.97;;
2111;SDS011;1062;52.538;13.400;2023-02-27T17:54:25;3.03;;;2.00;;
2111;SDS011;1062;52.538;13.400;2023-02-27T17:56:55;2.90;;;1.97;;
2111;SDS011;1062;52.538;13.400;2023-02-27T17:59:26;2.10;;;1.90;;
2111;SDS011;1062;52.538;13.400;2023-02-27T18:01:55;2.83;;;1.53;;
2111;SDS011;1062;52.538;13.400;2023-02-27T18:04:23;2.10;;;1.83;;
2111;SDS011;1062;52.538;13.400;2023-02-27T18:06:49;4.07;;;2.20;;
2111;SDS011;1062;52.538;13.400;2023-02-27T18:09:15;2.80;;;1.90;;
2111;SDS011;1062;52.538;13.400;2023-02-27T18:11:43;2.93;;;2.63;;
2111;SDS011;1062;52.538;13.400;2023-02-27T18:14:09;4.37;;;2.83;;
2111;SDS011;1062;52.538;13.400;2023-02-27T18:16:41;2.93;;;1.87;;
2111;SDS011;1062;52.538;13.400;2023-02-27T18:19:09;4.43;;;2.20;;
2111;SDS011;1062;52.538;13.400;2023-02-27T18:21:41;3.70;;;2.50;;
2111;SDS011;1062;52.538;13.400;2023-02-27T18:24:12;2.93;;;2.63;;
2111;SDS011;1062;52.538;13.400;2023-02-27T18:26:39;4.43;;;3.03;;
2111;SDS011;1062;52.538;13.400;2023-02-27T18:29:08;4.20;;;2.30;;